Flight Track Log - Related Links

Times and Time Zones

All times are in EDT time to prevent confusion due to time zone crossing. See the ANT506 flight status page for this flight to view local times or setup timezone preferences in your user account.

Time Position Orientation Groundspeed Altitude Reporting Facility
EDT Latitude Longitude Course Direction KTS MPH feet Rate Location/Type
Wed 02:24:39 PM 49.1667 -123.2167 334° Northwest 130 150 800  Level Vancouver Center
Wed 02:25:39 PM 49.1833 -123.2833 291° West 210 242 2,700 2,200 Climbing Vancouver Center
Wed 02:26:39 PM 49.2167 -123.3667 302° West 230 265 5,200 2,100 Climbing Vancouver Center
Wed 02:27:39 PM 49.2833 -123.3333 18° North 280 322 6,900 2,250 Climbing Vancouver Center
Wed 02:28:39 PM 49.3667 -123.3167 North 310 357 9,700 2,600 Climbing Vancouver Center
Wed 02:29:00 PM 49.7460 -123.6762 334° Northwest  Level FlightAware Approximate
Wed 02:29:39 PM 49.4667 -123.3167 360° North 330 380 12,100  Level Vancouver Center
Wed 02:30:39 PM 49.5667 -123.2833 12° North 370 426 15,300 3,100 Climbing Vancouver Center
Wed 02:31:39 PM 49.6667 -123.2500 12° North 380 437 18,300 2,700 Climbing Vancouver Center
Wed 02:32:39 PM 49.7833 -123.2333 North 400 460 20,700 2,400 Climbing Vancouver Center
Wed 02:33:39 PM 49.9000 -123.2833 345° North 420 483 23,100 2,350 Climbing Vancouver Center
Wed 02:34:39 PM 50.0000 -123.3500 337° Northwest 430 495 25,400 2,050 Climbing Vancouver Center
Wed 02:35:39 PM 50.1167 -123.4667 327° Northwest 450 518 27,200 1,900 Climbing Vancouver Center
Wed 02:36:39 PM 50.2333 -123.5333 340° North 460 529 29,200 1,800 Climbing Vancouver Center
Wed 02:37:39 PM 50.3500 -123.6167 336° Northwest 470 541 30,800 1,850 Climbing Vancouver Center
Wed 02:38:39 PM 50.4667 -123.7167 331° Northwest 480 552 32,900 1,900 Climbing Vancouver Center
Wed 02:39:39 PM 50.5833 -123.8000 336° Northwest 470 541 34,600 1,450 Climbing Vancouver Center
Wed 02:40:39 PM 50.7000 -123.9000 332° Northwest 470 541 35,800 700 Climbing Vancouver Center
Wed 02:41:39 PM 50.8167 -123.9833 336° Northwest 470 541 36,000 100 Climbing Vancouver Center
Wed 02:42:39 PM 50.9333 -124.0833 332° Northwest 470 541 36,000  Level Vancouver Center
Wed 02:43:39 PM 51.0500 -124.1667 336° Northwest 470 541 36,000  Level Vancouver Center
Wed 02:44:39 PM 51.1667 -124.2833 328° Northwest 470 541 36,000  Level Vancouver Center
Wed 02:45:39 PM 51.2833 -124.3667 336° Northwest 470 541 36,000  Level Vancouver Center
Wed 02:46:39 PM 51.4000 -124.4333 340° North 470 541 36,000  Level Vancouver Center
Wed 02:47:39 PM 51.5167 -124.5500 328° Northwest 460 529 36,000  Level Vancouver Center
Wed 02:48:39 PM 51.6333 -124.6333 336° Northwest 460 529 36,000  Level Vancouver Center
Wed 02:49:39 PM 51.7500 -124.7167 336° Northwest 460 529 36,000  Level Vancouver Center
Wed 02:50:39 PM 51.8667 -124.8333 328° Northwest 450 518 36,000  Level Vancouver Center
Wed 02:51:39 PM 51.9667 -124.9167 333° Northwest 450 518 36,000  Level Vancouver Center
Wed 02:52:39 PM 52.0833 -125.0000 336° Northwest 450 518 36,000  Level Vancouver Center
Wed 02:53:39 PM 52.1833 -125.1000 328° Northwest 440 506 36,000  Level Vancouver Center
Wed 02:54:39 PM 52.3000 -125.1833 336° Northwest 440 506 36,000  Level Vancouver Center
Wed 02:55:39 PM 52.4167 -125.2833 332° Northwest 440 506 36,000  Level Vancouver Center
Wed 02:56:39 PM 52.5167 -125.3667 333° Northwest 440 506 36,000  Level Vancouver Center
Wed 02:57:39 PM 52.6333 -125.4833 329° Northwest 440 506 36,000  Level Vancouver Center
Wed 02:58:39 PM 52.7333 -125.5667 333° Northwest 440 506 36,000  Level Vancouver Center
Wed 02:59:39 PM 52.8500 -125.6500 337° Northwest 440 506 36,000  Level Vancouver Center
Wed 03:00:39 PM 52.9500 -125.7333 333° Northwest 440 506 36,000  Level Vancouver Center
Wed 03:01:39 PM 53.0667 -125.8500 329° Northwest 430 495 36,000  Level Vancouver Center
Wed 03:02:39 PM 53.1833 -125.9333 337° Northwest 430 495 36,000  Level Vancouver Center
Wed 03:03:39 PM 53.2667 -126.0333 324° Northwest 430 495 36,000  Level Vancouver Center
Wed 03:04:39 PM 53.3667 -126.1167 334° Northwest 430 495 36,000  Level Vancouver Center
Wed 03:05:39 PM 53.4833 -126.2167 333° Northwest 430 495 36,000  Level Vancouver Center
Wed 03:06:39 PM 53.5833 -126.3000 334° Northwest 430 495 36,000  Level Vancouver Center
Wed 03:07:39 PM 53.7000 -126.4167 329° Northwest 420 483 36,000  Level Vancouver Center
Wed 03:08:39 PM 53.7833 -126.5167 325° Northwest 420 483 36,000  Level Vancouver Center
Wed 03:09:39 PM 53.9000 -126.6000 337° Northwest 420 483 36,000  Level Vancouver Center
Wed 03:10:39 PM 54.0000 -126.7000 330° Northwest 410 472 36,000  Level Vancouver Center
Wed 03:11:39 PM 54.1000 -126.7833 334° Northwest 410 472 36,000  Level Vancouver Center
Wed 03:12:39 PM 54.1833 -126.8833 325° Northwest 410 472 36,000 -400 Level Vancouver Center
Wed 03:13:39 PM 54.2833 -126.9667 334° Northwest 400 460 35,200 -900 Descending Vancouver Center
Wed 03:14:39 PM 54.3833 -127.0667 330° Northwest 380 437 34,200 -950 Descending Vancouver Center
Wed 03:15:39 PM 54.4667 -127.1333 335° Northwest 370 426 33,300 -950 Descending Vancouver Center
Wed 03:16:39 PM 54.5667 -127.2167 334° Northwest 370 426 32,300 -650 Descending Vancouver Center
Wed 03:17:39 PM 54.6500 -127.3167 325° Northwest 360 414 32,000 -150 Descending Vancouver Center
Wed 03:18:39 PM 54.7500 -127.3833 339° North 370 426 32,000  Level Vancouver Center
Wed 03:19:39 PM 54.8500 -127.4833 330° Northwest 370 426 32,000  Level Vancouver Center
Wed 03:20:39 PM 54.9333 -127.5667 330° Northwest 390 449 32,000  Level Vancouver Center
Wed 03:21:39 PM 55.0167 -127.6667 325° Northwest 370 426 32,000  Level Vancouver Center
Wed 03:22:39 PM 55.1167 -127.7667 330° Northwest 380 437 32,000  Level Vancouver Center
Wed 03:23:39 PM 55.2167 -127.8333 339° North 380 437 32,000  Level Vancouver Center
Wed 03:24:39 PM 55.3000 -127.9333 326° Northwest 370 426 32,000  Level Vancouver Center
Wed 03:25:39 PM 55.4000 -128.0167 335° Northwest 370 426 32,000  Level Vancouver Center
Wed 03:26:39 PM 55.4667 -128.1167 320° Northwest 400 460 32,000  Level Vancouver Center
Wed 03:27:39 PM 55.5667 -128.1833 339° North 380 437 32,000  Level Vancouver Center
Wed 03:28:39 PM 55.6667 -128.2833 331° Northwest 400 460 32,000  Level Vancouver Center
Wed 03:29:39 PM 55.7500 -128.3833 326° Northwest 390 449 32,000  Level Vancouver Center
Wed 03:30:39 PM 55.8500 -128.4833 331° Northwest 380 437 32,000  Level Vancouver Center
Wed 03:31:39 PM 55.9333 -128.5833 326° Northwest 380 437 32,000  Level Vancouver Center
Wed 03:32:39 PM 56.0333 -128.6833 331° Northwest 400 460 32,000  Level Vancouver Center
Wed 03:33:39 PM 56.1333 -128.8000 327° Northwest 380 437 32,000  Level Vancouver Center
Wed 03:34:39 PM 56.2333 -128.8667 340° North 400 460 32,000  Level Vancouver Center
Wed 03:35:39 PM 56.3167 -128.9667 326° Northwest 400 460 32,000  Level Vancouver Center
Wed 03:36:39 PM 56.4000 -129.0667 326° Northwest 390 449 32,000  Level Vancouver Center
Wed 03:37:39 PM 56.5000 -129.1667 331° Northwest 380 437 32,000  Level Vancouver Center
Wed 03:38:39 PM 56.6000 -129.3000 324° Northwest 380 437 32,000  Level Vancouver Center
Wed 03:39:39 PM 56.7000 -129.3833 335° Northwest 410 472 32,000  Level Vancouver Center
Wed 03:40:39 PM 56.7667 -129.4833 321° Northwest 390 449 32,000  Level Vancouver Center
Wed 03:41:39 PM 56.8667 -129.6167 324° Northwest 410 472 32,000  Level Vancouver Center
Wed 03:42:39 PM 56.9667 -129.7333 328° Northwest 370 426 32,000  Level Vancouver Center
Wed 03:43:39 PM 57.0500 -129.8333 327° Northwest 390 449 32,000  Level Vancouver Center
Wed 03:45:00 PM 57.1683 -129.9874 325° Northwest  Level FlightAware Approximate
Wed 03:52:00 PM 57.7788 -130.8020 325° Northwest  Level FlightAware Approximate
Wed 03:53:00 PM 57.8656 -130.9207 324° Northwest  Level FlightAware Approximate
Wed 03:54:00 PM 57.9522 -131.0399 324° Northwest  Level FlightAware Approximate
Wed 03:55:00 PM 58.0388 -131.1597 324° Northwest  Level FlightAware Approximate
Wed 03:56:00 PM 58.1252 -131.2800 324° Northwest  Level FlightAware Approximate
Wed 03:57:00 PM 58.2116 -131.4010 324° Northwest  Level FlightAware Approximate
Wed 03:58:00 PM 58.2978 -131.5225 323° Northwest  Level FlightAware Approximate
Wed 03:59:00 PM 58.3839 -131.6446 323° Northwest  Level FlightAware Approximate
Wed 04:00:00 PM 58.4698 -131.7674 323° Northwest  Level FlightAware Approximate
Wed 04:01:00 PM 58.5557 -131.8907 323° Northwest  Level FlightAware Approximate
Wed 04:02:00 PM 58.6414 -132.0146 323° Northwest  Level FlightAware Approximate
Wed 04:03:00 PM 58.7271 -132.1392 323° Northwest  Level FlightAware Approximate
Wed 04:04:00 PM 58.8126 -132.2643 323° Northwest  Level FlightAware Approximate
Wed 04:05:00 PM 58.8979 -132.3901 323° Northwest  Level FlightAware Approximate
Wed 04:06:00 PM 58.9832 -132.5165 323° Northwest  Level FlightAware Approximate
Wed 04:07:00 PM 59.0692 -132.6405 323° Northwest  Level FlightAware Approximate
Wed 04:08:00 PM 59.1538 -132.7691 318° Northwest  Level FlightAware Approximate
Wed 04:09:00 PM 59.2395 -132.8927 322° Northwest  Level FlightAware Approximate
Wed 04:10:00 PM 59.3242 -133.0218 322° Northwest  Level FlightAware Approximate
Wed 04:11:00 PM 59.4087 -133.1515 322° Northwest  Level FlightAware Approximate
Wed 04:12:00 PM 59.4930 -133.2823 321° Northwest  Level FlightAware Approximate
Wed 04:13:00 PM 59.5761 -133.4164 321° Northwest  Level FlightAware Approximate
Wed 04:14:00 PM 59.6590 -133.5511 321° Northwest  Level FlightAware Approximate
Wed 04:15:00 PM 59.7418 -133.6865 321° Northwest  Level FlightAware Approximate
Wed 04:16:00 PM 59.8247 -133.8220 321° Northwest  Level FlightAware Approximate
Wed 04:17:00 PM 59.9075 -133.9581 321° Northwest  Level FlightAware Approximate
Wed 04:18:00 PM 59.9902 -134.0948 320° Northwest  Level FlightAware Approximate
Wed 04:19:00 PM 60.0727 -134.2321 320° Northwest  Level FlightAware Approximate
Wed 04:20:00 PM 60.1555 -134.3692 321° Northwest  Level FlightAware Approximate
Wed 04:21:00 PM 60.2390 -134.5049 321° Northwest  Level FlightAware Approximate
Wed 04:22:00 PM 60.3230 -134.6397 322° Northwest  Level FlightAware Approximate
Wed 04:23:00 PM 60.4072 -134.7745 322° Northwest  Level FlightAware Approximate
Wed 04:24:00 PM 60.4894 -134.9144 319° Northwest  Level FlightAware Approximate
Wed 04:25:00 PM 60.5707 -135.0567 321° Northwest  Level FlightAware Approximate
Wed 04:26:00 PM 60.6609 -135.0960 20° North  Level FlightAware Approximate
Wed 04:27:00 PM 60.7000 -135.0667 20° North  Level FlightAware Approximate
Wed 04:28:00 PM 60.7095 -135.0673 20° North  Level Estimated
Wed 04:29:00 PM 60.7095 -135.0673 20° North  Level Estimated
Wed 04:30:00 PM 60.7095 -135.0673 20° North  Level Estimated
Wed 04:31:00 PM 60.7095 -135.0673 20° North  Level Estimated
Wed 04:32:00 PM 60.7095 -135.0673 20° North  Level Estimated
Wed 04:33:00 PM 60.7095 -135.0673 20° North  Level Estimated
Wed 04:34:00 PM 60.7095 -135.0673 20° North  Level Estimated
Wed 04:35:00 PM 60.7095 -135.0673 20° North  Level Estimated
Wed 04:36:00 PM 60.7095 -135.0673 20° North  Level Estimated

Login

Don't have an account? Register now (free) for customized features, flight alerts, and more!